createdAt,value
2023-04-25T00:00:57.467Z,9.20
2023-04-25T00:02:20.480Z,9.20
2023-04-25T00:03:42.750Z,9.20
2023-04-25T00:05:05.956Z,9.20
2023-04-25T00:06:28.331Z,9.30
2023-04-25T00:07:51.113Z,9.30
2023-04-25T00:09:13.129Z,9.30
2023-04-25T00:10:35.231Z,9.30
2023-04-25T00:11:57.338Z,9.30
2023-04-25T00:13:20.308Z,9.30
2023-04-25T00:14:42.374Z,9.30
2023-04-25T00:16:05.317Z,9.40
2023-04-25T00:17:27.816Z,9.40
2023-04-25T00:18:52.269Z,9.40
2023-04-25T00:20:14.594Z,9.40
2023-04-25T00:21:38.586Z,9.40
2023-04-25T00:23:00.725Z,9.40
2023-04-25T00:24:22.783Z,9.40
2023-04-25T00:25:49.319Z,9.40
2023-04-25T00:27:11.547Z,9.40
2023-04-25T00:28:33.607Z,9.40
2023-04-25T00:29:55.671Z,9.40
2023-04-25T00:31:17.739Z,9.40
2023-04-25T00:32:39.887Z,9.50
2023-04-25T00:34:02.118Z,9.50
2023-04-25T00:35:24.181Z,9.50
2023-04-25T00:36:46.580Z,9.50
2023-04-25T00:38:08.675Z,9.50
2023-04-25T00:39:30.861Z,9.60
2023-04-25T00:40:53.962Z,9.60
2023-04-25T00:42:16.873Z,9.60
2023-04-25T00:43:40.354Z,9.60
2023-04-25T00:45:02.766Z,9.60
2023-04-25T00:46:24.814Z,9.60
2023-04-25T00:47:48.384Z,9.60
2023-04-25T00:49:16.270Z,9.60
2023-04-25T00:50:38.794Z,9.60
2023-04-25T00:52:01.019Z,9.60
2023-04-25T00:53:24.087Z,9.60
2023-04-25T00:54:46.416Z,9.60
2023-04-25T00:56:09.138Z,9.60
2023-04-25T00:57:31.162Z,9.60
2023-04-25T00:58:57.840Z,9.60
2023-04-25T01:00:20.537Z,9.60
2023-04-25T01:01:43.371Z,9.70
2023-04-25T01:03:06.358Z,9.60
2023-04-25T01:04:29.615Z,9.70
2023-04-25T01:05:52.671Z,9.70
2023-04-25T01:07:15.081Z,9.70
2023-04-25T01:08:39.286Z,9.60
2023-04-25T01:10:01.903Z,9.70
2023-04-25T01:11:23.905Z,9.60
2023-04-25T01:12:46.096Z,9.70
2023-04-25T01:14:08.164Z,9.60
2023-04-25T01:15:30.673Z,9.60
2023-04-25T01:16:54.014Z,9.60
2023-04-25T01:18:17.216Z,9.60
2023-04-25T01:19:39.434Z,9.60
2023-04-25T01:21:11.655Z,9.60
2023-04-25T01:22:34.249Z,9.60
2023-04-25T01:23:56.567Z,9.60
2023-04-25T01:25:19.378Z,9.60
2023-04-25T01:26:45.913Z,9.60
2023-04-25T01:28:08.690Z,9.50
2023-04-25T01:29:31.868Z,9.50
2023-04-25T01:30:54.374Z,9.50
2023-04-25T01:32:17.075Z,9.50
2023-04-25T01:33:39.236Z,9.60
2023-04-25T01:35:01.605Z,9.50
2023-04-25T01:36:23.898Z,9.50
2023-04-25T01:37:46.107Z,9.50
2023-04-25T01:39:08.556Z,9.50
2023-04-25T01:40:31.255Z,9.50
2023-04-25T01:41:53.312Z,9.50
2023-04-25T01:43:15.591Z,9.50
2023-04-25T01:44:37.693Z,9.50
2023-04-25T01:46:00.491Z,9.50
2023-04-25T01:47:22.641Z,9.50
2023-04-25T01:48:45.278Z,9.50
2023-04-25T01:50:08.870Z,9.60
2023-04-25T01:51:31.422Z,9.50
2023-04-25T01:52:54.866Z,9.60
2023-04-25T01:54:17.988Z,9.50
2023-04-25T01:55:40.101Z,9.50
2023-04-25T01:57:02.676Z,9.50
2023-04-25T01:58:24.764Z,9.50
2023-04-25T01:59:47.233Z,9.50
2023-04-25T02:01:09.427Z,9.60
2023-04-25T02:02:31.653Z,9.60
2023-04-25T02:03:54.405Z,9.50
2023-04-25T02:05:17.558Z,9.50
2023-04-25T02:06:39.581Z,9.50
2023-04-25T02:08:01.654Z,9.50
2023-04-25T02:09:23.941Z,9.50
2023-04-25T02:10:46.065Z,9.50
2023-04-25T02:12:09.781Z,9.50
2023-04-25T02:13:31.819Z,9.40
2023-04-25T02:14:54.034Z,9.40
2023-04-25T02:16:16.093Z,9.40
2023-04-25T02:17:38.659Z,9.40
2023-04-25T02:19:01.088Z,9.40
2023-04-25T02:20:24.167Z,9.40
2023-04-25T02:21:46.537Z,9.40
2023-04-25T02:23:08.625Z,9.40
2023-04-25T02:24:30.936Z,9.40
2023-04-25T02:25:53.669Z,9.40
2023-04-25T02:27:16.145Z,9.40
2023-04-25T02:28:38.154Z,9.40
2023-04-25T02:30:00.443Z,9.30
2023-04-25T02:31:22.497Z,9.30
2023-04-25T02:32:44.691Z,9.30
2023-04-25T02:34:06.725Z,9.20
2023-04-25T02:35:28.778Z,9.10
2023-04-25T02:36:53.862Z,9.10
2023-04-25T02:38:15.976Z,9.10
2023-04-25T02:39:37.983Z,9.00
2023-04-25T02:41:00.187Z,9.00
2023-04-25T02:42:22.297Z,9.00
2023-04-25T02:43:44.369Z,9.00
2023-04-25T02:45:06.924Z,9.00
2023-04-25T02:46:39.109Z,9.00
2023-04-25T02:48:02.895Z,9.00
2023-04-25T02:49:25.063Z,9.00
2023-04-25T02:50:47.102Z,9.00
2023-04-25T02:52:09.711Z,9.00
2023-04-25T02:53:31.851Z,8.90
2023-04-25T02:54:53.884Z,8.90
2023-04-25T02:56:16.105Z,8.90
2023-04-25T02:57:38.175Z,8.90
2023-04-25T02:59:00.284Z,8.80
2023-04-25T03:00:23.465Z,8.80
2023-04-25T03:01:46.203Z,8.70
2023-04-25T03:03:08.351Z,8.70
2023-04-25T03:04:30.539Z,8.70
2023-04-25T03:05:52.958Z,8.70
2023-04-25T03:07:14.980Z,8.70
2023-04-25T03:08:37.070Z,8.70
2023-04-25T03:09:59.224Z,8.70
2023-04-25T03:11:21.340Z,8.70
2023-04-25T03:12:43.396Z,8.70
2023-04-25T03:14:05.646Z,8.70
2023-04-25T03:15:27.758Z,8.70
2023-04-25T03:16:49.829Z,8.80
2023-04-25T03:18:11.878Z,8.80
2023-04-25T03:19:33.896Z,8.80
2023-04-25T03:20:55.958Z,8.80
2023-04-25T03:22:18.041Z,8.80
2023-04-25T03:23:40.244Z,8.80
2023-04-25T03:25:02.256Z,8.80
2023-04-25T03:26:24.339Z,8.90
2023-04-25T03:27:46.510Z,8.90
2023-04-25T03:29:08.605Z,8.90
2023-04-25T03:30:30.714Z,8.90
2023-04-25T03:31:52.899Z,8.90
2023-04-25T03:33:15.051Z,8.90
2023-04-25T03:34:37.071Z,8.80
2023-04-25T03:35:59.129Z,8.80
2023-04-25T03:37:21.230Z,8.80
2023-04-25T03:38:43.371Z,8.70
2023-04-25T03:40:06.105Z,8.70
2023-04-25T03:41:28.749Z,8.70
2023-04-25T03:42:51.044Z,8.70
2023-04-25T03:44:13.223Z,8.70
2023-04-25T03:45:35.691Z,8.70
2023-04-25T03:46:57.821Z,8.70
2023-04-25T03:48:22.388Z,8.70
2023-04-25T03:49:45.506Z,8.70
2023-04-25T03:51:07.610Z,8.80
2023-04-25T03:52:29.709Z,8.80
2023-04-25T03:53:52.917Z,8.80
2023-04-25T03:55:15.410Z,8.80
2023-04-25T03:56:37.462Z,8.80
2023-04-25T03:57:59.828Z,8.80
2023-04-25T03:59:21.851Z,8.80
2023-04-25T04:00:43.960Z,8.80
2023-04-25T04:02:06.003Z,8.80
2023-04-25T04:03:28.360Z,8.80
2023-04-25T04:04:50.797Z,8.80
2023-04-25T04:06:14.090Z,8.90
2023-04-25T04:07:40.764Z,8.90
2023-04-25T04:09:03.277Z,8.90
2023-04-25T04:10:27.015Z,9.00
2023-04-25T04:11:49.234Z,9.10
2023-04-25T04:13:11.305Z,9.10
2023-04-25T04:14:33.401Z,9.20
2023-04-25T04:15:56.601Z,9.20
2023-04-25T04:17:18.671Z,9.30
2023-04-25T04:18:40.806Z,9.40
2023-04-25T04:20:04.533Z,9.50
2023-04-25T04:21:27.725Z,9.50
2023-04-25T04:22:49.797Z,9.70
2023-04-25T04:24:11.929Z,9.80
2023-04-25T04:25:33.954Z,10.10
2023-04-25T04:26:56.600Z,10.50
2023-04-25T04:28:18.803Z,11.00
2023-04-25T04:29:41.020Z,11.60
2023-04-25T04:31:04.615Z,12.20
2023-04-25T04:32:26.752Z,12.60
2023-04-25T04:33:49.343Z,12.70
2023-04-25T04:35:12.007Z,12.60
2023-04-25T04:36:34.438Z,12.40
2023-04-25T04:37:57.079Z,12.00
2023-04-25T04:39:19.153Z,11.60
2023-04-25T04:40:41.903Z,11.30
2023-04-25T04:42:04.341Z,11.00
2023-04-25T04:43:26.370Z,10.80
2023-04-25T04:44:48.364Z,10.60
2023-04-25T04:46:11.209Z,10.40
2023-04-25T04:47:33.558Z,10.30
2023-04-25T04:48:57.348Z,10.20
2023-04-25T04:50:19.987Z,10.10
2023-04-25T04:51:42.183Z,10.10
2023-04-25T04:53:05.574Z,10.00
2023-04-25T04:54:28.012Z,10.00
2023-04-25T04:55:50.699Z,9.90
2023-04-25T04:57:12.720Z,9.90
2023-04-25T04:58:35.203Z,10.00
2023-04-25T04:59:57.573Z,9.90
2023-04-25T05:01:19.708Z,9.80
2023-04-25T05:02:41.898Z,9.80
2023-04-25T05:04:04.944Z,9.70
2023-04-25T05:05:27.168Z,9.60
2023-04-25T05:06:49.350Z,9.50
2023-04-25T05:08:11.561Z,9.50
2023-04-25T05:09:33.597Z,9.50
2023-04-25T05:10:55.769Z,9.40
2023-04-25T05:12:17.814Z,9.40
2023-04-25T05:13:39.927Z,9.40
2023-04-25T05:15:01.992Z,9.40
2023-04-25T05:16:24.446Z,9.40
2023-04-25T05:17:46.966Z,9.40
2023-04-25T05:19:09.101Z,9.40
2023-04-25T05:20:31.158Z,9.50
2023-04-25T05:21:53.936Z,9.50
2023-04-25T05:23:16.394Z,9.50
2023-04-25T05:24:38.592Z,9.50
2023-04-25T05:26:00.792Z,9.60
2023-04-25T05:27:22.851Z,9.60
2023-04-25T05:28:44.887Z,9.60
2023-04-25T05:30:08.039Z,9.60
2023-04-25T05:31:30.327Z,9.70
2023-04-25T05:32:52.467Z,9.70
2023-04-25T05:34:14.636Z,9.80
2023-04-25T05:35:36.702Z,9.80
2023-04-25T05:36:58.786Z,9.90
2023-04-25T05:38:20.998Z,9.90
2023-04-25T05:39:43.024Z,10.00
2023-04-25T05:41:05.146Z,10.00
2023-04-25T05:42:27.216Z,10.00
2023-04-25T05:43:50.646Z,10.00
2023-04-25T05:45:13.878Z,10.10
2023-04-25T05:46:35.979Z,10.10
2023-04-25T05:47:58.016Z,10.10
2023-04-25T05:49:20.232Z,10.10
2023-04-25T05:50:42.312Z,10.10
2023-04-25T05:52:04.454Z,10.10
2023-04-25T05:53:26.478Z,10.00
2023-04-25T05:54:48.550Z,9.80
2023-04-25T05:56:10.744Z,9.70
2023-04-25T05:57:33.048Z,9.70
2023-04-25T05:58:55.143Z,9.70
2023-04-25T06:00:17.381Z,9.60
2023-04-25T06:01:39.497Z,9.50
2023-04-25T06:03:02.419Z,9.40
2023-04-25T06:04:26.589Z,9.40
2023-04-25T06:05:48.907Z,9.40
2023-04-25T06:07:11.146Z,9.50
2023-04-25T06:08:33.237Z,9.60
2023-04-25T06:09:55.286Z,9.80
2023-04-25T06:11:17.393Z,10.00
2023-04-25T06:12:39.578Z,10.00
2023-04-25T06:14:01.936Z,9.90
2023-04-25T06:15:28.511Z,9.90
2023-04-25T06:16:51.108Z,9.90
2023-04-25T06:18:13.261Z,9.90
2023-04-25T06:19:36.563Z,9.80
2023-04-25T06:20:58.645Z,9.70
2023-04-25T06:22:20.748Z,9.60
2023-04-25T06:23:42.850Z,9.60
2023-04-25T06:25:05.399Z,9.60
2023-04-25T06:26:27.538Z,9.60
2023-04-25T06:27:49.635Z,9.70
2023-04-25T06:29:11.689Z,9.70
2023-04-25T06:30:33.731Z,9.70
2023-04-25T06:31:55.759Z,9.70
2023-04-25T06:33:17.888Z,9.80
2023-04-25T06:34:39.971Z,9.80
2023-04-25T06:36:02.036Z,9.90
2023-04-25T06:37:24.148Z,10.10
2023-04-25T06:38:46.437Z,10.10
2023-04-25T06:40:09.157Z,10.10
2023-04-25T06:41:31.350Z,10.10
2023-04-25T06:42:53.361Z,10.20
2023-04-25T06:44:16.276Z,10.30
2023-04-25T06:45:38.363Z,10.40
2023-04-25T06:47:00.502Z,10.50
2023-04-25T06:48:22.591Z,10.50
2023-04-25T06:49:44.649Z,10.60
2023-04-25T06:51:06.730Z,10.50
2023-04-25T06:52:28.848Z,10.50
2023-04-25T06:53:51.143Z,10.60
2023-04-25T06:55:13.184Z,10.60
2023-04-25T06:56:35.447Z,10.70
2023-04-25T06:57:57.564Z,10.80
2023-04-25T06:59:19.618Z,10.80
2023-04-25T07:00:41.679Z,10.80
2023-04-25T07:02:04.598Z,10.80
2023-04-25T07:03:26.864Z,10.70
2023-04-25T07:04:49.333Z,10.70
2023-04-25T07:06:11.497Z,10.70
2023-04-25T07:07:33.566Z,10.60
2023-04-25T07:08:56.709Z,10.60
2023-04-25T07:10:18.792Z,10.40
2023-04-25T07:11:40.823Z,10.30
2023-04-25T07:13:02.890Z,10.20
2023-04-25T07:14:25.254Z,10.20
2023-04-25T07:15:49.049Z,10.40
2023-04-25T07:17:11.114Z,10.60
2023-04-25T07:18:33.156Z,10.60
2023-04-25T07:19:55.303Z,10.80
2023-04-25T07:21:17.361Z,10.80
2023-04-25T07:22:39.730Z,11.00
2023-04-25T07:24:01.800Z,11.10
2023-04-25T07:25:24.031Z,11.10
2023-04-25T07:26:46.497Z,11.00
2023-04-25T07:28:08.622Z,10.80
2023-04-25T07:29:31.880Z,10.70
2023-04-25T07:30:53.995Z,10.50
2023-04-25T07:32:16.210Z,10.40
2023-04-25T07:33:38.413Z,10.30
2023-04-25T07:35:00.511Z,10.20
2023-04-25T07:36:22.561Z,10.20
2023-04-25T07:37:44.628Z,10.20
2023-04-25T07:39:07.464Z,10.20
2023-04-25T07:40:29.606Z,10.20
2023-04-25T07:41:54.471Z,10.20
2023-04-25T07:43:17.844Z,10.10
2023-04-25T07:44:41.060Z,10.10
2023-04-25T07:46:03.819Z,10.20
2023-04-25T07:47:26.496Z,10.30
2023-04-25T07:48:49.331Z,10.40
2023-04-25T07:50:11.979Z,10.40
2023-04-25T07:51:34.061Z,10.30
2023-04-25T07:52:56.548Z,10.20
2023-04-25T07:54:18.621Z,10.10
2023-04-25T07:55:41.195Z,10.10
2023-04-25T07:57:03.428Z,10.00
2023-04-25T07:58:25.621Z,10.10
2023-04-25T07:59:47.715Z,10.10
2023-04-25T08:01:09.835Z,10.30
2023-04-25T08:02:32.014Z,10.50
2023-04-25T08:03:54.723Z,10.70
2023-04-25T08:05:18.949Z,10.80
2023-04-25T08:06:42.773Z,10.90
2023-04-25T08:08:07.319Z,10.80
2023-04-25T08:09:30.324Z,10.80
2023-04-25T08:10:52.440Z,10.60
2023-04-25T08:12:14.576Z,10.60
2023-04-25T08:13:36.664Z,10.60
2023-04-25T08:14:58.779Z,10.60
2023-04-25T08:16:20.923Z,10.60
2023-04-25T08:17:44.875Z,10.70
2023-04-25T08:19:07.250Z,10.80
2023-04-25T08:20:29.474Z,11.00
2023-04-25T08:21:52.806Z,11.00
2023-04-25T08:23:15.283Z,11.10
2023-04-25T08:24:39.378Z,11.20
2023-04-25T08:26:01.875Z,11.20
2023-04-25T08:27:24.651Z,11.30
2023-04-25T08:28:47.463Z,11.40
2023-04-25T08:30:09.936Z,11.40
2023-04-25T08:31:32.195Z,11.40
2023-04-25T08:32:54.428Z,11.50
2023-04-25T08:34:16.815Z,11.60
2023-04-25T08:35:38.904Z,11.60
2023-04-25T08:37:00.996Z,11.70
2023-04-25T08:38:23.340Z,11.80
2023-04-25T08:39:46.139Z,11.80
2023-04-25T08:41:08.368Z,11.90
2023-04-25T08:42:33.936Z,11.90
2023-04-25T08:43:58.200Z,11.90
2023-04-25T08:45:20.666Z,11.80
2023-04-25T08:46:43.224Z,11.70
2023-04-25T08:48:06.564Z,11.50
2023-04-25T08:49:29.490Z,11.40
2023-04-25T08:50:53.670Z,11.30
2023-04-25T08:52:21.128Z,11.20
2023-04-25T08:53:46.344Z,11.00
2023-04-25T08:55:12.720Z,10.80
2023-04-25T08:56:36.010Z,10.60
2023-04-25T08:58:00.596Z,10.40
2023-04-25T08:59:24.115Z,10.40
2023-04-25T09:00:48.724Z,10.30
2023-04-25T09:02:15.499Z,10.30
2023-04-25T09:03:38.151Z,10.50
2023-04-25T09:05:00.686Z,10.50
2023-04-25T09:06:23.749Z,10.40
2023-04-25T09:07:45.809Z,10.40
2023-04-25T09:09:10.035Z,10.40
2023-04-25T09:11:56.024Z,10.40
2023-04-25T09:13:27.054Z,10.40
2023-04-25T09:15:10.380Z,10.30
2023-04-25T09:16:33.657Z,10.30
2023-04-25T09:18:00.370Z,10.30
2023-04-25T09:21:14.996Z,10.00
2023-04-25T09:22:38.376Z,10.00
2023-04-25T09:24:00.665Z,10.00
2023-04-25T09:25:22.924Z,10.00
2023-04-25T09:26:45.137Z,10.00
2023-04-25T09:28:08.344Z,10.20
2023-04-25T09:29:32.186Z,10.40
2023-04-25T09:31:00.883Z,10.60
2023-04-25T09:32:25.013Z,10.90
2023-04-25T09:33:47.169Z,11.00
2023-04-25T09:35:09.659Z,11.20
2023-04-25T09:36:31.836Z,11.40
2023-04-25T09:37:53.921Z,11.40
2023-04-25T09:39:20.529Z,11.30
2023-04-25T09:40:46.094Z,11.20
2023-04-25T09:42:10.452Z,11.10
2023-04-25T09:43:32.504Z,10.80
2023-04-25T09:44:55.895Z,10.70
2023-04-25T09:46:19.700Z,10.70
2023-04-25T09:47:42.000Z,10.80
2023-04-25T09:49:08.880Z,10.80
2023-04-25T09:50:31.058Z,10.80
2023-04-25T09:51:58.046Z,10.90
2023-04-25T09:53:20.127Z,10.90
2023-04-25T09:54:42.502Z,10.90
2023-04-25T09:56:09.668Z,10.70
2023-04-25T09:57:32.028Z,10.70
2023-04-25T09:58:55.974Z,10.70
2023-04-25T10:00:19.305Z,10.60
2023-04-25T10:01:42.384Z,10.70
2023-04-25T10:03:06.634Z,10.80
2023-04-25T10:04:34.022Z,10.80
2023-04-25T10:05:57.617Z,10.90
2023-04-25T10:07:22.306Z,10.90
2023-04-25T10:08:45.266Z,10.80
2023-04-25T10:10:08.037Z,10.70
2023-04-25T10:11:31.501Z,10.50
2023-04-25T10:12:54.279Z,10.40
2023-04-25T10:14:17.509Z,10.30
2023-04-25T10:15:40.488Z,10.10
2023-04-25T10:17:02.952Z,10.10
2023-04-25T10:18:27.526Z,10.10
2023-04-25T10:19:50.712Z,10.00
2023-04-25T10:21:14.082Z,10.10
2023-04-25T10:22:58.981Z,10.20
2023-04-25T10:24:21.886Z,10.40
2023-04-25T10:25:44.907Z,10.60
2023-04-25T10:27:07.823Z,10.80
2023-04-25T10:28:30.160Z,11.10
2023-04-25T10:30:05.187Z,11.40
2023-04-25T10:31:27.628Z,11.70
2023-04-25T10:32:55.540Z,11.70
2023-04-25T10:34:18.633Z,11.70
2023-04-25T10:35:41.366Z,11.70
2023-04-25T10:37:04.582Z,11.60
2023-04-25T10:38:27.478Z,11.40
2023-04-25T10:39:49.604Z,11.20
2023-04-25T10:41:13.036Z,11.10
2023-04-25T10:42:35.096Z,10.90
2023-04-25T10:44:06.611Z,10.80
2023-04-25T10:45:28.714Z,10.90
2023-04-25T10:46:50.910Z,11.00
2023-04-25T10:48:29.864Z,10.90
2023-04-25T10:49:52.098Z,11.00
2023-04-25T10:51:24.436Z,11.20
2023-04-25T10:52:46.482Z,11.60
2023-04-25T10:54:09.798Z,11.70
2023-04-25T10:55:50.920Z,11.80
2023-04-25T10:57:32.487Z,11.70
2023-04-25T10:59:14.275Z,11.60
2023-04-25T11:00:53.232Z,11.10
2023-04-25T11:02:19.620Z,10.90
2023-04-25T11:03:46.641Z,10.70
2023-04-25T11:05:09.449Z,10.60
2023-04-25T11:06:53.799Z,10.60
2023-04-25T11:08:28.972Z,10.60
2023-04-25T11:09:51.204Z,10.70
2023-04-25T11:11:13.747Z,10.80
2023-04-25T11:12:36.163Z,10.80
2023-04-25T11:13:58.447Z,10.70
2023-04-25T11:15:20.656Z,10.70
2023-04-25T11:16:42.782Z,10.80
2023-04-25T11:18:05.068Z,10.90
2023-04-25T11:19:27.933Z,10.90
2023-04-25T11:20:50.835Z,11.00
2023-04-25T11:22:13.507Z,11.10
2023-04-25T11:23:35.693Z,11.10
2023-04-25T11:24:57.793Z,11.00
2023-04-25T11:26:21.391Z,11.00
2023-04-25T11:27:56.954Z,10.90
2023-04-25T11:29:19.026Z,10.80
2023-04-25T11:30:41.219Z,10.60
2023-04-25T11:32:03.600Z,10.40
2023-04-25T11:33:26.842Z,10.30
2023-04-25T11:34:48.960Z,10.30
2023-04-25T11:36:11.156Z,10.30
2023-04-25T11:37:35.059Z,10.40
2023-04-25T11:38:57.275Z,10.40
2023-04-25T11:40:19.549Z,10.30
2023-04-25T11:41:44.486Z,10.30
2023-04-25T11:43:08.269Z,10.20
2023-04-25T11:44:31.553Z,10.20
2023-04-25T11:45:53.713Z,10.20
2023-04-25T11:47:16.013Z,10.20
2023-04-25T11:48:42.236Z,10.20
2023-04-25T11:50:06.651Z,10.30
2023-04-25T11:51:28.728Z,10.40
2023-04-25T11:52:51.214Z,10.60
2023-04-25T11:54:13.563Z,10.70
2023-04-25T11:55:36.981Z,10.90
2023-04-25T11:56:59.234Z,11.00
2023-04-25T11:58:21.402Z,11.20
2023-04-25T11:59:43.480Z,11.30
2023-04-25T12:01:05.810Z,11.30
2023-04-25T12:02:28.362Z,11.40
2023-04-25T12:03:50.670Z,11.40
2023-04-25T12:05:30.559Z,11.40
2023-04-25T12:06:55.916Z,11.40
2023-04-25T12:08:18.214Z,11.10
2023-04-25T12:09:41.500Z,11.10
2023-04-25T12:11:04.335Z,11.00
2023-04-25T12:12:33.809Z,10.90
2023-04-25T12:13:56.489Z,10.80
2023-04-25T12:15:24.528Z,10.80
2023-04-25T12:16:47.966Z,10.60
2023-04-25T12:18:10.083Z,10.40
2023-04-25T12:19:36.749Z,10.40
2023-04-25T12:20:59.507Z,10.40
2023-04-25T12:22:24.059Z,10.50
2023-04-25T12:23:46.068Z,10.60
2023-04-25T12:25:08.959Z,10.70
2023-04-25T12:26:49.962Z,10.70
2023-04-25T12:28:24.567Z,10.90
2023-04-25T12:29:54.483Z,11.00
2023-04-25T12:31:17.314Z,11.00
2023-04-25T12:32:39.579Z,10.90
2023-04-25T12:34:01.862Z,10.90
2023-04-25T12:35:23.938Z,10.90
2023-04-25T12:36:46.482Z,10.90
2023-04-25T12:38:08.583Z,10.70
2023-04-25T12:39:30.639Z,10.50
2023-04-25T12:40:53.199Z,10.30
2023-04-25T12:42:15.448Z,10.10
2023-04-25T12:43:37.629Z,9.90
2023-04-25T12:44:59.622Z,9.80
2023-04-25T12:46:21.786Z,9.70
2023-04-25T12:47:43.949Z,9.70
2023-04-25T12:49:17.726Z,9.60
2023-04-25T12:50:42.084Z,9.60
2023-04-25T12:52:04.520Z,9.50
2023-04-25T12:53:26.794Z,9.50
2023-04-25T12:54:48.907Z,9.50
2023-04-25T12:56:11.069Z,9.30
2023-04-25T12:57:33.141Z,9.30
2023-04-25T12:58:55.330Z,9.20
2023-04-25T13:00:19.255Z,9.20
2023-04-25T13:01:41.625Z,9.20
2023-04-25T13:03:04.367Z,9.30
2023-04-25T13:04:26.726Z,9.30
2023-04-25T13:05:48.963Z,9.40
2023-04-25T13:07:10.999Z,9.50
2023-04-25T13:08:33.262Z,9.50
2023-04-25T13:09:55.328Z,9.60
2023-04-25T13:11:17.492Z,9.70
2023-04-25T13:12:39.528Z,9.80
2023-04-25T13:14:01.982Z,9.80
2023-04-25T13:15:24.095Z,9.90
2023-04-25T13:16:46.953Z,10.00
2023-04-25T13:18:09.148Z,10.10
2023-04-25T13:19:31.764Z,10.20
2023-04-25T13:20:54.319Z,10.40
2023-04-25T13:22:17.940Z,10.60
2023-04-25T13:23:40.140Z,10.80
2023-04-25T13:25:02.152Z,10.90
2023-04-25T13:26:24.307Z,11.00
2023-04-25T13:27:47.403Z,11.10
2023-04-25T13:29:10.614Z,11.30
2023-04-25T13:30:32.658Z,11.40
2023-04-25T13:31:54.742Z,11.70
2023-04-25T13:33:16.913Z,12.00
2023-04-25T13:34:38.919Z,12.30
2023-04-25T13:36:02.003Z,12.40
2023-04-25T13:37:25.247Z,12.40
2023-04-25T13:38:48.715Z,12.30
2023-04-25T13:40:12.212Z,12.50
2023-04-25T13:41:34.336Z,12.60
2023-04-25T13:42:57.236Z,12.60
2023-04-25T13:44:19.319Z,12.50
2023-04-25T13:45:48.309Z,12.40
2023-04-25T13:47:10.535Z,12.40
2023-04-25T13:48:32.693Z,12.30
2023-04-25T13:49:55.551Z,12.10
2023-04-25T13:51:18.538Z,12.00
2023-04-25T13:52:41.318Z,11.90
2023-04-25T13:54:03.449Z,11.90
2023-04-25T13:55:25.757Z,11.90
2023-04-25T13:56:47.929Z,11.80
2023-04-25T13:58:10.898Z,11.70
2023-04-25T13:59:33.677Z,11.40
2023-04-25T14:00:55.723Z,11.20
2023-04-25T14:02:17.814Z,10.90
2023-04-25T14:03:40.013Z,10.80
2023-04-25T14:05:03.240Z,10.80
2023-04-25T14:06:26.220Z,10.80
2023-04-25T14:07:48.371Z,10.70
2023-04-25T14:09:11.369Z,10.60
2023-04-25T14:10:33.507Z,10.50
2023-04-25T14:11:57.272Z,10.40
2023-04-25T14:13:19.301Z,10.40
2023-04-25T14:14:41.317Z,10.40
2023-04-25T14:16:03.544Z,10.40
2023-04-25T14:17:25.845Z,10.50
2023-04-25T14:18:47.871Z,10.50
2023-04-25T14:20:11.861Z,10.40
2023-04-25T14:21:33.991Z,10.40
2023-04-25T14:22:58.061Z,10.40
2023-04-25T14:24:20.425Z,10.30
2023-04-25T14:25:43.198Z,10.20
2023-04-25T14:27:05.362Z,10.30
2023-04-25T14:28:27.417Z,10.40
2023-04-25T14:29:49.437Z,10.70
2023-04-25T14:31:11.621Z,10.80
2023-04-25T14:32:33.816Z,11.00
2023-04-25T14:33:58.547Z,11.20
2023-04-25T14:35:22.184Z,11.30
2023-04-25T14:36:44.337Z,11.30
2023-04-25T14:38:06.834Z,11.30
2023-04-25T14:39:28.946Z,11.10
2023-04-25T14:40:51.346Z,11.10
2023-04-25T14:42:13.419Z,11.10
2023-04-25T14:43:35.704Z,11.10
2023-04-25T14:44:57.723Z,11.20
2023-04-25T14:46:21.480Z,11.30
2023-04-25T14:47:43.735Z,11.30
2023-04-25T14:49:06.365Z,11.40
2023-04-25T14:50:28.497Z,11.40
2023-04-25T14:51:51.923Z,11.20
2023-04-25T14:53:14.139Z,11.00
2023-04-25T14:54:36.259Z,10.80
2023-04-25T14:55:58.611Z,10.70
2023-04-25T14:57:20.972Z,10.60
2023-04-25T14:58:42.989Z,10.40
2023-04-25T15:00:07.909Z,10.30
2023-04-25T15:01:30.113Z,10.30
2023-04-25T15:02:52.784Z,10.20
2023-04-25T15:04:15.304Z,10.20
2023-04-25T15:05:37.471Z,10.20
2023-04-25T15:07:00.030Z,10.20
2023-04-25T15:08:22.403Z,10.20
2023-04-25T15:09:44.502Z,10.20
2023-04-25T15:11:06.575Z,10.20
2023-04-25T15:12:29.255Z,10.30
2023-04-25T15:13:51.534Z,10.30
2023-04-25T15:15:17.568Z,10.20
2023-04-25T15:16:47.394Z,10.10
2023-04-25T15:18:09.498Z,10.00
2023-04-25T15:19:31.758Z,9.90
2023-04-25T15:20:54.434Z,9.90
2023-04-25T15:22:16.731Z,9.80
2023-04-25T15:23:39.121Z,9.80
2023-04-25T15:25:01.472Z,9.70
2023-04-25T15:26:23.764Z,9.70
2023-04-25T15:27:47.572Z,9.70
2023-04-25T15:29:09.856Z,9.80
2023-04-25T15:30:31.909Z,9.90
2023-04-25T15:31:54.332Z,10.00
2023-04-25T15:33:16.461Z,10.20
2023-04-25T15:34:38.654Z,10.20
2023-04-25T15:36:00.884Z,10.30
2023-04-25T15:37:22.898Z,10.30
2023-04-25T15:38:45.009Z,10.40
2023-04-25T15:40:13.735Z,10.50
2023-04-25T15:41:37.432Z,10.60
2023-04-25T15:42:59.741Z,10.70
2023-04-25T15:44:21.966Z,10.80
2023-04-25T15:45:44.240Z,10.90
2023-04-25T15:47:06.770Z,11.00
2023-04-25T15:48:28.845Z,11.00
2023-04-25T15:49:50.876Z,11.00
2023-04-25T15:51:12.925Z,10.90
2023-04-25T15:52:36.467Z,10.80
2023-04-25T15:53:58.580Z,10.70
2023-04-25T15:55:26.642Z,10.80
2023-04-25T15:56:48.744Z,10.80
2023-04-25T15:58:13.005Z,10.80
2023-04-25T15:59:35.554Z,10.60
2023-04-25T16:00:57.712Z,10.60
2023-04-25T16:02:20.155Z,10.60
2023-04-25T16:03:42.356Z,10.50
2023-04-25T16:05:04.972Z,10.50
2023-04-25T16:06:27.503Z,10.30
2023-04-25T16:07:50.216Z,10.20
2023-04-25T16:09:12.622Z,10.10
2023-04-25T16:10:34.810Z,10.20
2023-04-25T16:11:57.100Z,10.30
2023-04-25T16:13:19.146Z,10.40
2023-04-25T16:14:41.629Z,10.40
2023-04-25T16:16:03.995Z,10.30
2023-04-25T16:17:28.150Z,10.30
2023-04-25T16:18:50.335Z,10.20
2023-04-25T16:20:13.518Z,10.20
2023-04-25T16:21:36.012Z,10.10
2023-04-25T16:22:58.072Z,10.00
2023-04-25T16:24:20.544Z,9.80
2023-04-25T16:25:43.074Z,9.70
2023-04-25T16:27:05.210Z,9.60
2023-04-25T16:28:27.359Z,9.60
2023-04-25T16:29:51.338Z,9.50
2023-04-25T16:31:13.740Z,9.60
2023-04-25T16:32:36.452Z,9.60
2023-04-25T16:33:58.592Z,9.70
2023-04-25T16:35:21.038Z,9.80
2023-04-25T16:36:43.194Z,9.80
2023-04-25T16:38:05.381Z,9.80
2023-04-25T16:39:27.445Z,9.80
2023-04-25T16:40:49.618Z,9.80
2023-04-25T16:42:11.780Z,9.70
2023-04-25T16:43:33.948Z,9.70
2023-04-25T16:44:55.997Z,9.80
2023-04-25T16:46:21.602Z,9.80
2023-04-25T16:47:43.788Z,9.80
2023-04-25T16:49:06.439Z,9.90
2023-04-25T16:50:28.598Z,9.90
2023-04-25T16:51:50.969Z,9.80
2023-04-25T16:53:12.996Z,9.70
2023-04-25T16:54:35.089Z,9.60
2023-04-25T16:55:57.242Z,9.50
2023-04-25T16:57:19.352Z,9.50
2023-04-25T16:58:41.451Z,9.40
2023-04-25T17:00:05.700Z,9.30
2023-04-25T17:01:28.101Z,9.20
2023-04-25T17:02:50.403Z,9.20
2023-04-25T17:04:12.884Z,9.10
2023-04-25T17:05:35.548Z,9.10
2023-04-25T17:06:57.571Z,9.10
2023-04-25T17:08:19.762Z,9.00
2023-04-25T17:09:41.907Z,9.00
2023-04-25T17:11:03.983Z,8.90
2023-04-25T17:12:26.272Z,8.90
2023-04-25T17:13:48.385Z,8.90
2023-04-25T17:15:10.865Z,8.90
2023-04-25T17:16:37.748Z,8.90
2023-04-25T17:18:02.607Z,8.90
2023-04-25T17:19:24.831Z,9.00
2023-04-25T17:20:46.980Z,9.00
2023-04-25T17:22:09.309Z,9.00
2023-04-25T17:23:32.372Z,9.00
2023-04-25T17:24:54.861Z,9.00
2023-04-25T17:26:17.051Z,9.00
2023-04-25T17:27:39.128Z,9.10
2023-04-25T17:29:01.186Z,9.30
2023-04-25T17:30:23.782Z,9.40
2023-04-25T17:31:46.355Z,9.50
2023-04-25T17:33:09.350Z,9.60
2023-04-25T17:34:31.853Z,9.60
2023-04-25T17:35:54.366Z,9.60
2023-04-25T17:37:17.403Z,9.40
2023-04-25T17:38:39.498Z,9.30
2023-04-25T17:40:02.065Z,9.20
2023-04-25T17:41:24.208Z,9.00
2023-04-25T17:42:46.355Z,8.90
2023-04-25T17:44:08.545Z,8.80
2023-04-25T17:45:34.669Z,8.80
2023-04-25T17:46:56.792Z,8.70
2023-04-25T17:48:18.970Z,8.60
2023-04-25T17:49:41.183Z,8.50
2023-04-25T17:51:03.369Z,8.50
2023-04-25T17:52:25.861Z,8.40
2023-04-25T17:53:48.150Z,8.40
2023-04-25T17:55:10.589Z,8.40
2023-04-25T17:56:36.428Z,8.40
2023-04-25T17:57:58.536Z,8.30
2023-04-25T17:59:21.428Z,8.30
2023-04-25T18:00:43.652Z,8.30
2023-04-25T18:02:05.840Z,8.30
2023-04-25T18:03:28.064Z,8.20
2023-04-25T18:04:50.255Z,8.20
2023-04-25T18:06:12.754Z,8.20
2023-04-25T18:07:38.042Z,8.10
2023-04-25T18:09:01.942Z,8.20
2023-04-25T18:10:24.241Z,8.10